createdAt,value
2018-09-13T00:01:25.190Z,1.50
2018-09-13T00:03:53.679Z,1.60
2018-09-13T00:06:22.316Z,1.13
2018-09-13T00:08:50.801Z,1.40
2018-09-13T00:11:19.343Z,1.40
2018-09-13T00:13:48.116Z,1.80
2018-09-13T00:16:16.888Z,1.20
2018-09-13T00:18:45.848Z,1.27
2018-09-13T00:21:14.685Z,1.30
2018-09-13T00:23:43.371Z,1.00
2018-09-13T00:26:12.509Z,1.17
2018-09-13T00:28:41.088Z,1.20
2018-09-13T00:31:09.594Z,1.30
2018-09-13T00:33:38.091Z,1.10
2018-09-13T00:36:06.616Z,1.10
2018-09-13T00:38:35.130Z,1.37
2018-09-13T00:41:04.392Z,1.40
2018-09-13T00:43:32.896Z,1.13
2018-09-13T00:46:01.415Z,1.30
2018-09-13T00:48:30.016Z,1.40
2018-09-13T00:50:58.557Z,1.30
2018-09-13T00:53:27.068Z,1.60
2018-09-13T00:55:55.573Z,1.27
2018-09-13T00:58:24.064Z,1.23
2018-09-13T01:00:52.600Z,1.30
2018-09-13T01:03:21.106Z,1.07
2018-09-13T01:05:49.627Z,1.30
2018-09-13T01:08:18.411Z,1.50
2018-09-13T01:10:46.921Z,1.20
2018-09-13T01:13:16.927Z,1.83
2018-09-13T01:15:45.511Z,1.10
2018-09-13T01:18:14.065Z,1.30
2018-09-13T01:20:42.556Z,1.27
2018-09-13T01:23:11.083Z,1.37
2018-09-13T01:25:39.631Z,1.37
2018-09-13T01:28:08.186Z,1.20
2018-09-13T01:30:36.688Z,1.10
2018-09-13T01:33:05.267Z,1.10
2018-09-13T01:35:33.832Z,1.00
2018-09-13T01:38:02.396Z,1.10
2018-09-13T01:40:31.390Z,1.20
2018-09-13T01:42:59.917Z,1.20
2018-09-13T01:45:28.403Z,1.07
2018-09-13T01:47:56.923Z,1.30
2018-09-13T01:50:25.405Z,1.10
2018-09-13T01:52:53.967Z,1.00
2018-09-13T01:55:22.492Z,1.10
2018-09-13T01:57:51.112Z,1.47
2018-09-13T02:00:19.609Z,1.03
2018-09-13T02:02:48.279Z,1.40
2018-09-13T02:05:16.805Z,1.40
2018-09-13T02:07:45.395Z,0.90
2018-09-13T02:10:13.878Z,1.23
2018-09-13T02:12:42.415Z,1.40
2018-09-13T02:15:10.898Z,1.30
2018-09-13T02:17:39.443Z,1.50
2018-09-13T02:20:07.928Z,1.37
2018-09-13T02:22:36.473Z,1.70
2018-09-13T02:25:05.001Z,1.17
2018-09-13T02:27:33.583Z,1.20
2018-09-13T02:30:02.181Z,1.17
2018-09-13T02:32:30.675Z,0.93
2018-09-13T02:34:59.227Z,1.40
2018-09-13T02:37:27.814Z,1.00
2018-09-13T02:39:56.440Z,1.10
2018-09-13T02:42:24.983Z,1.10
2018-09-13T02:44:53.499Z,1.40
2018-09-13T02:47:22.005Z,1.10
2018-09-13T02:49:50.545Z,1.20
2018-09-13T02:52:19.164Z,1.50
2018-09-13T02:54:47.671Z,0.80
2018-09-13T02:57:16.176Z,1.13
2018-09-13T02:59:44.730Z,1.33
2018-09-13T03:02:13.247Z,1.30
2018-09-13T03:04:41.809Z,1.30
2018-09-13T03:07:10.296Z,1.30
2018-09-13T03:09:38.832Z,1.33
2018-09-13T03:12:07.369Z,1.23
2018-09-13T03:14:35.901Z,1.10
2018-09-13T03:17:04.393Z,0.97
2018-09-13T03:19:32.996Z,1.23
2018-09-13T03:22:01.494Z,1.33
2018-09-13T03:24:30.049Z,1.63
2018-09-13T03:26:58.560Z,0.87
2018-09-13T03:29:27.058Z,1.20
2018-09-13T03:31:55.564Z,1.10
2018-09-13T03:34:24.078Z,1.27
2018-09-13T03:36:52.552Z,1.03
2018-09-13T03:39:21.173Z,1.40
2018-09-13T03:41:49.722Z,1.50
2018-09-13T03:44:18.318Z,1.23
2018-09-13T03:46:46.837Z,1.40
2018-09-13T03:49:15.362Z,1.17
2018-09-13T03:51:43.852Z,1.30
2018-09-13T03:54:12.368Z,1.50
2018-09-13T03:56:40.878Z,1.13
2018-09-13T03:59:09.486Z,1.50
2018-09-13T04:01:38.584Z,1.70
2018-09-13T04:04:07.135Z,1.33
2018-09-13T04:06:35.659Z,0.90
2018-09-13T04:09:07.853Z,1.10
2018-09-13T04:11:36.291Z,1.00
2018-09-13T04:14:05.019Z,1.13
2018-09-13T04:16:33.660Z,1.40
2018-09-13T04:19:02.213Z,1.20
2018-09-13T04:21:30.734Z,1.00
2018-09-13T04:23:59.377Z,1.30
2018-09-13T04:26:28.194Z,1.50
2018-09-13T04:28:56.687Z,1.33
2018-09-13T04:31:25.200Z,1.20
2018-09-13T04:33:53.806Z,1.03
2018-09-13T04:36:22.366Z,1.57
2018-09-13T04:38:50.959Z,1.40
2018-09-13T04:41:20.032Z,1.67
2018-09-13T04:43:48.636Z,1.20
2018-09-13T04:46:17.132Z,1.60
2018-09-13T04:48:45.654Z,1.50
2018-09-13T04:51:14.175Z,1.30
2018-09-13T04:53:42.726Z,1.50
2018-09-13T04:56:11.370Z,1.50
2018-09-13T04:59:17.248Z,1.23
2018-09-13T05:01:46.081Z,1.10
2018-09-13T05:04:14.611Z,1.40
2018-09-13T05:06:43.187Z,1.33
2018-09-13T05:09:13.084Z,1.30
2018-09-13T05:11:41.583Z,1.50
2018-09-13T05:14:10.153Z,1.43
2018-09-13T05:16:38.653Z,1.50
2018-09-13T05:19:07.177Z,1.53
2018-09-13T05:21:35.660Z,1.60
2018-09-13T05:24:04.659Z,1.57
2018-09-13T05:26:33.169Z,2.03
2018-09-13T05:29:01.863Z,1.80
2018-09-13T05:31:30.418Z,1.50
2018-09-13T05:33:58.897Z,1.60
2018-09-13T05:36:27.368Z,1.20
2018-09-13T05:38:55.981Z,1.77
2018-09-13T05:41:24.946Z,1.37
2018-09-13T05:43:53.449Z,1.30
2018-09-13T05:46:22.136Z,1.47
2018-09-13T05:48:50.658Z,1.57
2018-09-13T05:51:19.258Z,1.57
2018-09-13T05:53:47.825Z,1.40
2018-09-13T05:56:16.935Z,1.27
2018-09-13T05:58:45.515Z,1.83
2018-09-13T06:01:14.001Z,1.43
2018-09-13T06:03:42.590Z,1.40
2018-09-13T06:06:11.103Z,1.53
2018-09-13T06:08:39.680Z,1.57
2018-09-13T06:11:08.225Z,1.40
2018-09-13T06:13:36.863Z,1.60
2018-09-13T06:16:05.236Z,1.80
2018-09-13T06:18:33.724Z,1.60
2018-09-13T06:21:02.244Z,1.33
2018-09-13T06:23:33.889Z,1.70
2018-09-13T06:26:05.332Z,1.03
2018-09-13T06:28:33.872Z,1.40
2018-09-13T06:31:02.789Z,1.57
2018-09-13T06:33:31.448Z,1.40
2018-09-13T06:36:00.038Z,1.20
2018-09-13T06:38:28.614Z,1.33
2018-09-13T06:40:57.555Z,1.97
2018-09-13T06:43:26.678Z,1.30
2018-09-13T06:45:55.997Z,1.50
2018-09-13T06:48:24.587Z,1.60
2018-09-13T06:50:53.105Z,2.00
2018-09-13T06:53:23.428Z,1.40
2018-09-13T06:55:51.926Z,1.33
2018-09-13T06:58:20.592Z,1.60
2018-09-13T07:00:49.365Z,1.50
2018-09-13T07:03:18.308Z,1.40
2018-09-13T07:05:46.848Z,2.60
2018-09-13T07:08:15.500Z,1.13
2018-09-13T07:10:44.165Z,1.20
2018-09-13T07:13:12.887Z,1.63
2018-09-13T07:15:41.456Z,1.20
2018-09-13T07:18:10.108Z,1.20
2018-09-13T07:20:38.624Z,1.30
2018-09-13T07:23:07.652Z,1.20
2018-09-13T07:25:36.248Z,1.10
2018-09-13T07:28:04.803Z,1.57
2018-09-13T07:30:33.288Z,1.50
2018-09-13T07:33:01.881Z,1.77
2018-09-13T07:35:30.360Z,1.10
2018-09-13T07:37:58.880Z,2.17
2018-09-13T07:40:27.625Z,1.60
2018-09-13T07:42:56.186Z,1.50
2018-09-13T07:45:24.840Z,1.93
2018-09-13T07:47:53.363Z,1.67
2018-09-13T07:50:22.002Z,2.00
2018-09-13T07:52:50.559Z,2.20
2018-09-13T07:55:19.090Z,2.12
2018-09-13T07:57:47.944Z,1.67
2018-09-13T08:00:16.477Z,1.80
2018-09-13T08:02:45.045Z,2.57
2018-09-13T08:05:13.583Z,1.67
2018-09-13T08:07:42.076Z,2.93
2018-09-13T08:10:10.601Z,1.80
2018-09-13T08:12:39.100Z,1.83
2018-09-13T08:15:07.655Z,1.60
2018-09-13T08:17:36.138Z,1.97
2018-09-13T08:20:04.634Z,1.73
2018-09-13T08:22:33.170Z,1.27
2018-09-13T08:25:02.046Z,1.50
2018-09-13T08:27:30.676Z,1.57
2018-09-13T08:29:59.438Z,1.20
2018-09-13T08:32:27.933Z,2.60
2018-09-13T08:34:57.006Z,2.00
2018-09-13T08:37:25.519Z,1.40
2018-09-13T08:39:54.644Z,1.73
2018-09-13T08:42:23.180Z,1.30
2018-09-13T08:44:52.362Z,1.73
2018-09-13T08:47:20.861Z,0.97
2018-09-13T08:49:49.366Z,1.20
2018-09-13T08:52:17.859Z,1.63
2018-09-13T08:54:46.419Z,1.20
2018-09-13T08:57:14.966Z,1.55
2018-09-13T08:59:44.075Z,1.90
2018-09-13T09:02:12.630Z,1.20
2018-09-13T09:04:41.604Z,1.70
2018-09-13T09:07:10.152Z,1.20
2018-09-13T09:09:38.725Z,1.40
2018-09-13T09:12:07.254Z,1.80
2018-09-13T09:14:36.685Z,1.70
2018-09-13T09:17:05.219Z,2.10
2018-09-13T09:19:33.714Z,1.07
2018-09-13T09:22:02.204Z,1.80
2018-09-13T09:24:30.748Z,1.50
2018-09-13T09:26:59.263Z,1.40
2018-09-13T09:29:27.837Z,1.40
2018-09-13T09:31:57.262Z,1.30
2018-09-13T09:34:26.373Z,1.37
2018-09-13T09:36:55.412Z,1.50
2018-09-13T09:39:24.334Z,1.30
2018-09-13T09:41:53.604Z,1.27
2018-09-13T09:44:23.045Z,1.17
2018-09-13T09:46:51.905Z,1.30
2018-09-13T09:49:20.804Z,1.40
2018-09-13T09:51:49.729Z,1.23
2018-09-13T09:54:18.512Z,1.40
2018-09-13T09:56:47.370Z,1.23
2018-09-13T09:59:16.415Z,1.05
2018-09-13T10:01:50.652Z,1.37
2018-09-13T10:04:19.616Z,1.07
2018-09-13T10:06:48.453Z,1.50
2018-09-13T10:09:17.294Z,1.27
2018-09-13T10:11:46.141Z,1.07
2018-09-13T10:14:14.987Z,1.23
2018-09-13T10:16:49.293Z,1.10
2018-09-13T10:19:23.391Z,1.17
2018-09-13T10:21:57.475Z,1.20
2018-09-13T10:24:31.658Z,0.90
2018-09-13T10:27:05.886Z,1.00
2018-09-13T10:29:40.480Z,1.67
2018-09-13T10:32:14.771Z,1.33
2018-09-13T10:34:48.930Z,1.30
2018-09-13T10:37:22.975Z,1.30
2018-09-13T10:39:57.207Z,1.00
2018-09-13T10:42:31.472Z,1.80
2018-09-13T10:45:05.627Z,1.23
2018-09-13T10:47:42.165Z,1.17
2018-09-13T10:50:15.620Z,0.90
2018-09-13T10:52:48.237Z,1.07
2018-09-13T10:55:17.149Z,0.80
2018-09-13T10:57:45.950Z,1.00
2018-09-13T11:00:15.268Z,1.30
2018-09-13T11:02:44.174Z,1.07
2018-09-13T11:05:13.129Z,0.80
2018-09-13T11:07:41.983Z,0.80
2018-09-13T11:10:10.863Z,1.23
2018-09-13T11:12:45.108Z,1.37
2018-09-13T11:15:19.288Z,1.07
2018-09-13T11:17:48.078Z,1.30
2018-09-13T11:20:16.886Z,1.13
2018-09-13T11:22:50.157Z,1.03
2018-09-13T11:25:18.979Z,0.97
2018-09-13T11:27:47.885Z,0.90
2018-09-13T11:30:16.759Z,1.70
2018-09-13T11:32:45.731Z,1.00
2018-09-13T11:35:14.643Z,1.42
2018-09-13T11:37:43.499Z,0.80
2018-09-13T11:40:12.880Z,1.12
2018-09-13T11:42:42.214Z,0.97
2018-09-13T11:45:11.026Z,1.10
2018-09-13T11:47:40.981Z,1.47
2018-09-13T11:50:09.845Z,1.47
2018-09-13T11:52:38.723Z,1.00
2018-09-13T11:55:08.021Z,1.10
2018-09-13T11:57:36.927Z,0.90
2018-09-13T12:00:05.906Z,1.07
2018-09-13T12:02:34.746Z,1.20
2018-09-13T12:05:04.322Z,1.33
2018-09-13T12:07:33.448Z,1.07
2018-09-13T12:10:02.280Z,1.40
2018-09-13T12:12:31.123Z,1.23
2018-09-13T12:14:59.941Z,1.40
2018-09-13T12:17:28.764Z,0.90
2018-09-13T12:19:58.132Z,0.93
2018-09-13T12:22:27.087Z,1.00
2018-09-13T12:24:55.968Z,1.03
2018-09-13T12:27:24.823Z,1.00
2018-09-13T12:29:53.689Z,1.00
2018-09-13T12:32:22.603Z,0.93
2018-09-13T12:34:51.481Z,0.80
2018-09-13T12:37:20.561Z,1.03
2018-09-13T12:39:49.447Z,0.80
2018-09-13T12:42:18.287Z,0.80
2018-09-13T12:44:47.181Z,0.60
2018-09-13T12:47:16.021Z,0.80
2018-09-13T12:49:44.971Z,1.17
2018-09-13T12:52:13.960Z,0.83
2018-09-13T12:54:42.760Z,1.13
2018-09-13T12:57:11.739Z,0.80
2018-09-13T12:59:40.569Z,0.80
2018-09-13T13:02:09.405Z,1.00
2018-09-13T13:04:38.235Z,0.87
2018-09-13T13:07:07.125Z,0.80
2018-09-13T13:09:35.951Z,0.80
2018-09-13T13:12:07.184Z,1.00
2018-09-13T13:14:36.330Z,1.57
2018-09-13T13:17:05.172Z,1.00
2018-09-13T13:19:34.033Z,0.60
2018-09-13T13:22:02.879Z,0.97
2018-09-13T13:24:31.698Z,0.97
2018-09-13T13:27:00.624Z,1.00
2018-09-13T13:29:29.661Z,0.80
2018-09-13T13:31:58.640Z,0.90
2018-09-13T13:34:27.471Z,0.73
2018-09-13T13:36:56.457Z,0.90
2018-09-13T13:39:25.349Z,0.90
2018-09-13T13:41:54.255Z,0.90
2018-09-13T13:44:23.116Z,1.10
2018-09-13T13:46:51.952Z,1.10
2018-09-13T13:49:21.302Z,0.93
2018-09-13T13:51:50.305Z,1.00
2018-09-13T13:54:20.161Z,0.90
2018-09-13T13:56:49.081Z,1.10
2018-09-13T13:59:17.987Z,1.03
2018-09-13T14:01:47.811Z,0.83
2018-09-13T14:04:16.691Z,0.73
2018-09-13T14:06:48.046Z,1.43
2018-09-13T14:09:17.204Z,0.90
2018-09-13T14:11:46.049Z,0.63
2018-09-13T14:14:14.939Z,0.83
2018-09-13T14:16:43.860Z,0.87
2018-09-13T14:19:12.744Z,1.10
2018-09-13T14:21:41.691Z,1.00
2018-09-13T14:24:10.575Z,0.80
2018-09-13T14:26:40.917Z,0.97
2018-09-13T14:29:10.604Z,0.83
2018-09-13T14:31:41.095Z,0.97
2018-09-13T14:34:09.923Z,1.03
2018-09-13T14:36:39.573Z,2.10
2018-09-13T14:39:09.951Z,1.10
2018-09-13T14:41:38.817Z,1.42
2018-09-13T14:44:07.996Z,1.00
2018-09-13T14:46:37.827Z,1.00
2018-09-13T14:49:06.935Z,1.00
2018-09-13T14:51:36.093Z,1.03
2018-09-13T14:54:05.600Z,0.90
2018-09-13T14:56:36.343Z,0.87
2018-09-13T14:59:05.913Z,1.17
2018-09-13T15:01:36.769Z,1.00
2018-09-13T15:04:05.656Z,0.60
2018-09-13T15:06:34.532Z,0.60
2018-09-13T15:09:03.621Z,0.80
2018-09-13T15:11:32.451Z,1.10
2018-09-13T15:14:01.333Z,1.10
2018-09-13T15:16:29.949Z,1.00
2018-09-13T15:18:58.519Z,0.97
2018-09-13T15:21:27.811Z,1.20
2018-09-13T15:23:57.050Z,0.83
2018-09-13T15:26:25.816Z,1.00
2018-09-13T15:28:54.700Z,0.93
2018-09-13T15:31:24.506Z,1.10
2018-09-13T15:33:53.385Z,1.13
2018-09-13T15:36:22.236Z,1.00
2018-09-13T15:38:52.194Z,1.00
2018-09-13T15:41:21.100Z,0.87
2018-09-13T15:43:50.733Z,0.90
2018-09-13T15:46:19.619Z,0.73
2018-09-13T15:48:48.838Z,3.03
2018-09-13T15:51:18.463Z,4.00
2018-09-13T15:53:47.431Z,47.70
2018-09-13T15:56:16.812Z,31.40
2018-09-13T15:58:48.235Z,26.53
2018-09-13T16:01:17.101Z,33.93
2018-09-13T16:03:46.300Z,26.27
2018-09-13T16:06:16.238Z,26.23
2018-09-13T16:08:45.603Z,22.13
2018-09-13T16:11:15.030Z,21.33
2018-09-13T16:13:44.316Z,22.07
2018-09-13T16:16:13.155Z,18.77
2018-09-13T16:18:42.013Z,16.33
2018-09-13T16:21:11.252Z,15.37
2018-09-13T16:23:40.040Z,14.83
2018-09-13T16:26:08.987Z,14.07
2018-09-13T16:28:37.823Z,13.27
2018-09-13T16:31:06.749Z,8.20
2018-09-13T16:33:35.677Z,12.03
2018-09-13T16:36:04.632Z,10.20
2018-09-13T16:38:39.304Z,10.28
2018-09-13T16:41:13.620Z,10.67
2018-09-13T16:43:47.884Z,9.20
2018-09-13T16:46:22.202Z,6.47
2018-09-13T16:48:51.181Z,8.43
2018-09-13T16:51:20.323Z,8.75
2018-09-13T16:53:49.236Z,8.07
2018-09-13T16:56:18.155Z,7.83
2018-09-13T16:58:47.068Z,6.63
2018-09-13T17:01:16.480Z,6.70
2018-09-13T17:03:45.788Z,6.67
2018-09-13T17:06:14.801Z,6.17
2018-09-13T17:08:43.667Z,5.93
2018-09-13T17:11:13.134Z,5.13
2018-09-13T17:13:42.237Z,4.97
2018-09-13T17:16:11.253Z,5.50
2018-09-13T17:18:40.219Z,5.47
2018-09-13T17:21:09.096Z,4.70
2018-09-13T17:23:38.532Z,4.63
2018-09-13T17:26:07.370Z,3.87
2018-09-13T17:28:36.596Z,3.53
2018-09-13T17:31:05.573Z,3.47
2018-09-13T17:33:34.526Z,3.50
2018-09-13T17:36:04.274Z,4.03
2018-09-13T17:38:33.092Z,3.80
2018-09-13T17:41:02.215Z,4.70
2018-09-13T17:43:31.168Z,4.43
2018-09-13T17:46:00.047Z,3.77
2018-09-13T17:48:28.957Z,4.37
2018-09-13T17:50:58.405Z,3.87
2018-09-13T17:53:27.309Z,3.90
2018-09-13T17:55:56.339Z,3.73
2018-09-13T17:58:25.276Z,3.53
2018-09-13T18:00:55.449Z,3.33
2018-09-13T18:03:24.669Z,3.60
2018-09-13T18:05:53.226Z,3.17
2018-09-13T18:08:22.852Z,3.03
2018-09-13T18:10:51.506Z,2.70
2018-09-13T18:13:20.595Z,2.77
2018-09-13T18:15:49.802Z,3.00
2018-09-13T18:18:18.500Z,2.53
2018-09-13T18:20:47.491Z,2.67
2018-09-13T18:23:16.353Z,2.33
2018-09-13T18:25:44.914Z,2.40
2018-09-13T18:28:13.498Z,2.70
2018-09-13T18:30:42.364Z,2.30
2018-09-13T18:33:10.940Z,2.33
2018-09-13T18:35:39.451Z,2.33
2018-09-13T18:38:07.980Z,2.20
2018-09-13T18:40:36.616Z,2.20
2018-09-13T18:43:05.300Z,2.00
2018-09-13T18:45:33.833Z,2.37
2018-09-13T18:48:02.398Z,2.00
2018-09-13T18:50:31.802Z,2.00
2018-09-13T18:53:00.375Z,2.13
2018-09-13T18:55:28.938Z,2.07
2018-09-13T18:57:58.675Z,2.20
2018-09-13T19:00:27.622Z,2.10
2018-09-13T19:02:57.370Z,2.07
2018-09-13T19:05:27.325Z,1.93
2018-09-13T19:07:56.695Z,1.87
2018-09-13T19:10:25.616Z,3.43
2018-09-13T19:12:54.524Z,2.33
2018-09-13T19:15:23.740Z,2.00
2018-09-13T19:17:52.724Z,2.20
2018-09-13T19:20:21.867Z,1.80
2018-09-13T19:22:50.793Z,2.20
2018-09-13T19:25:20.244Z,1.77
2018-09-13T19:27:49.523Z,1.90
2018-09-13T19:30:18.496Z,1.95
2018-09-13T19:32:47.600Z,1.93
2018-09-13T19:35:16.634Z,2.22
2018-09-13T19:37:47.581Z,2.00
2018-09-13T19:40:16.757Z,1.90
2018-09-13T19:42:46.561Z,2.15
2018-09-13T19:45:15.729Z,1.80
2018-09-13T19:47:44.863Z,1.70
2018-09-13T19:50:13.783Z,1.63
2018-09-13T19:52:43.099Z,1.93
2018-09-13T19:55:11.914Z,1.53
2018-09-13T19:57:40.750Z,1.60
2018-09-13T20:00:09.747Z,1.90
2018-09-13T20:02:38.683Z,2.07
2018-09-13T20:05:07.633Z,2.03
2018-09-13T20:07:38.058Z,1.70
2018-09-13T20:10:07.226Z,1.63
2018-09-13T20:12:36.073Z,2.30
2018-09-13T20:15:05.497Z,2.27
2018-09-13T20:17:34.408Z,2.43
2018-09-13T20:20:04.159Z,1.67
2018-09-13T20:22:32.992Z,1.50
2018-09-13T20:25:01.845Z,1.80
2018-09-13T20:27:30.717Z,1.83
2018-09-13T20:29:59.669Z,2.30
2018-09-13T20:32:28.850Z,2.07
2018-09-13T20:34:57.745Z,1.70
2018-09-13T20:37:26.604Z,1.70
2018-09-13T20:39:55.454Z,1.80
2018-09-13T20:42:24.501Z,1.40
2018-09-13T20:44:53.500Z,1.70
2018-09-13T20:47:22.778Z,2.10
2018-09-13T20:49:51.682Z,1.97
2018-09-13T20:52:20.532Z,1.60
2018-09-13T20:54:49.411Z,1.80
2018-09-13T20:57:18.295Z,1.50
2018-09-13T20:59:47.098Z,1.60
2018-09-13T21:02:15.935Z,1.90
2018-09-13T21:04:44.907Z,1.50
2018-09-13T21:07:13.837Z,1.90
2018-09-13T21:09:43.527Z,2.07
2018-09-13T21:12:12.741Z,2.20
2018-09-13T21:14:41.608Z,2.07
2018-09-13T21:17:10.510Z,1.97
2018-09-13T21:19:39.408Z,2.50
2018-09-13T21:22:09.164Z,1.90
2018-09-13T21:24:38.394Z,2.13
2018-09-13T21:27:07.879Z,2.50
2018-09-13T21:29:36.944Z,2.07
2018-09-13T21:32:06.303Z,2.30
2018-09-13T21:34:35.417Z,2.20
2018-09-13T21:37:05.049Z,2.00
2018-09-13T21:39:33.910Z,2.20
2018-09-13T21:42:02.813Z,2.30
2018-09-13T21:44:31.713Z,2.20
2018-09-13T21:47:00.477Z,2.05
2018-09-13T21:49:29.357Z,1.90
2018-09-13T21:51:58.240Z,2.17
2018-09-13T21:54:27.057Z,1.83
2018-09-13T21:56:55.957Z,2.58
2018-09-13T21:59:24.823Z,2.43
2018-09-13T22:01:53.697Z,2.10
2018-09-13T22:04:22.569Z,1.87
2018-09-13T22:06:51.425Z,2.40
2018-09-13T22:09:20.248Z,1.93
2018-09-13T22:11:49.087Z,2.07
2018-09-13T22:14:18.017Z,2.03
2018-09-13T22:16:46.916Z,2.03
2018-09-13T22:19:15.721Z,2.20
2018-09-13T22:21:44.552Z,2.03
2018-09-13T22:24:13.380Z,2.00
2018-09-13T22:26:42.212Z,1.77
2018-09-13T22:29:11.111Z,2.20
2018-09-13T22:31:39.876Z,1.60
2018-09-13T22:34:08.694Z,1.60
2018-09-13T22:36:37.516Z,1.90
2018-09-13T22:39:08.043Z,2.07
2018-09-13T22:41:37.599Z,1.77
2018-09-13T22:44:06.751Z,1.80
2018-09-13T22:46:35.802Z,1.70
2018-09-13T22:49:05.187Z,1.85
2018-09-13T22:51:34.414Z,1.70
2018-09-13T22:54:03.541Z,1.83
2018-09-13T22:56:32.355Z,1.77
2018-09-13T22:59:01.204Z,1.63
2018-09-13T23:01:30.053Z,1.57
2018-09-13T23:03:58.894Z,1.30
2018-09-13T23:06:27.756Z,2.23
2018-09-13T23:08:56.607Z,1.87
2018-09-13T23:11:26.059Z,1.60
2018-09-13T23:13:54.891Z,2.03
2018-09-13T23:16:23.800Z,2.00
2018-09-13T23:18:53.120Z,1.90
2018-09-13T23:21:21.987Z,1.30
2018-09-13T23:23:50.854Z,1.80
2018-09-13T23:26:19.745Z,1.67
2018-09-13T23:28:48.563Z,1.40
2018-09-13T23:31:17.420Z,1.77
2018-09-13T23:33:46.253Z,1.73
2018-09-13T23:36:15.387Z,1.63
2018-09-13T23:38:44.215Z,1.60
2018-09-13T23:41:13.206Z,1.62
2018-09-13T23:43:42.057Z,1.80
2018-09-13T23:46:10.950Z,1.80
2018-09-13T23:48:39.715Z,1.47
2018-09-13T23:51:08.655Z,1.80
2018-09-13T23:53:37.515Z,1.77
2018-09-13T23:56:06.432Z,1.80
2018-09-13T23:58:35.624Z,1.70
